sensor_id;sensor_type;location;lat;lon;timestamp;pressure;altitude;pressure_sealevel;temperature;humidity
44765;BME280;30484;52.382;5.260;2023-02-22T00:00:45;101637.75;;;10.10;100.00
44765;BME280;30484;52.382;5.260;2023-02-22T00:03:18;101641.94;;;10.17;100.00
44765;BME280;30484;52.382;5.260;2023-02-22T00:05:52;101646.25;;;10.46;100.00
44765;BME280;30484;52.382;5.260;2023-02-22T00:08:23;101653.38;;;10.21;100.00
44765;BME280;30484;52.382;5.260;2023-02-22T00:10:58;101652.44;;;10.22;100.00
44765;BME280;30484;52.382;5.260;2023-02-22T00:13:27;101649.97;;;10.66;100.00
44765;BME280;30484;52.382;5.260;2023-02-22T00:15:56;101652.53;;;10.45;100.00
44765;BME280;30484;52.382;5.260;2023-02-22T00:18:26;101644.34;;;10.25;100.00
44765;BME280;30484;52.382;5.260;2023-02-22T00:20:56;101653.94;;;10.05;100.00
44765;BME280;30484;52.382;5.260;2023-02-22T00:23:27;101655.38;;;9.89;100.00
44765;BME280;30484;52.382;5.260;2023-02-22T00:25:58;101650.66;;;9.97;100.00
44765;BME280;30484;52.382;5.260;2023-02-22T00:28:27;101648.38;;;10.11;100.00
44765;BME280;30484;52.382;5.260;2023-02-22T00:30:56;101646.78;;;10.80;100.00
44765;BME280;30484;52.382;5.260;2023-02-22T00:33:25;101651.22;;;10.32;100.00
44765;BME280;30484;52.382;5.260;2023-02-22T00:35:53;101653.09;;;10.28;100.00
44765;BME280;30484;52.382;5.260;2023-02-22T00:38:22;101636.72;;;10.63;100.00
44765;BME280;30484;52.382;5.260;2023-02-22T00:40:50;101646.59;;;10.10;100.00
44765;BME280;30484;52.382;5.260;2023-02-22T00:43:20;101637.25;;;10.49;100.00
44765;BME280;30484;52.382;5.260;2023-02-22T00:45:48;101637.25;;;10.49;100.00
44765;BME280;30484;52.382;5.260;2023-02-22T00:48:17;101627.06;;;10.82;100.00
44765;BME280;30484;52.382;5.260;2023-02-22T00:50:45;101625.34;;;10.58;100.00
44765;BME280;30484;52.382;5.260;2023-02-22T00:53:15;101636.50;;;10.45;100.00
44765;BME280;30484;52.382;5.260;2023-02-22T00:55:43;101629.13;;;10.27;100.00
44765;BME280;30484;52.382;5.260;2023-02-22T00:58:11;101628.88;;;10.33;100.00
44765;BME280;30484;52.382;5.260;2023-02-22T01:00:41;101632.50;;;10.32;100.00
44765;BME280;30484;52.382;5.260;2023-02-22T01:03:11;101630.97;;;9.74;100.00
44765;BME280;30484;52.382;5.260;2023-02-22T01:05:41;101626.16;;;10.60;100.00
44765;BME280;30484;52.382;5.260;2023-02-22T01:08:11;101609.47;;;10.04;100.00
44765;BME280;30484;52.382;5.260;2023-02-22T01:10:39;101600.03;;;10.19;100.00
44765;BME280;30484;52.382;5.260;2023-02-22T01:13:08;101597.97;;;10.02;100.00
44765;BME280;30484;52.382;5.260;2023-02-22T01:15:41;101604.44;;;10.20;100.00
44765;BME280;30484;52.382;5.260;2023-02-22T01:18:11;101613.28;;;9.97;100.00
44765;BME280;30484;52.382;5.260;2023-02-22T01:20:43;101609.41;;;10.06;100.00
44765;BME280;30484;52.382;5.260;2023-02-22T01:23:14;101614.94;;;9.74;100.00
44765;BME280;30484;52.382;5.260;2023-02-22T01:25:43;101611.03;;;9.84;100.00
44765;BME280;30484;52.382;5.260;2023-02-22T01:28:12;101610.56;;;9.46;100.00
44765;BME280;30484;52.382;5.260;2023-02-22T01:30:43;101606.31;;;9.41;100.00
44765;BME280;30484;52.382;5.260;2023-02-22T01:33:12;101608.19;;;10.14;100.00
44765;BME280;30484;52.382;5.260;2023-02-22T01:35:43;101591.84;;;10.49;100.00
44765;BME280;30484;52.382;5.260;2023-02-22T01:38:12;101597.75;;;10.08;100.00
44765;BME280;30484;52.382;5.260;2023-02-22T01:40:42;101594.69;;;9.94;100.00
44765;BME280;30484;52.382;5.260;2023-02-22T01:43:16;101579.97;;;10.07;100.00
44765;BME280;30484;52.382;5.260;2023-02-22T01:45:57;101583.59;;;10.06;100.00
44765;BME280;30484;52.382;5.260;2023-02-22T01:48:33;101571.97;;;10.56;100.00
44765;BME280;30484;52.382;5.260;2023-02-22T01:51:05;101581.34;;;9.68;100.00
44765;BME280;30484;52.382;5.260;2023-02-22T01:53:39;101580.88;;;9.82;100.00
44765;BME280;30484;52.382;5.260;2023-02-22T01:56:08;101584.25;;;9.88;100.00
44765;BME280;30484;52.382;5.260;2023-02-22T01:58:38;101576.16;;;10.14;100.00
44765;BME280;30484;52.382;5.260;2023-02-22T02:01:09;101579.72;;;9.90;100.00
44765;BME280;30484;52.382;5.260;2023-02-22T02:03:39;101574.69;;;10.06;100.00
44765;BME280;30484;52.382;5.260;2023-02-22T02:06:10;101575.03;;;9.71;100.00
44765;BME280;30484;52.382;5.260;2023-02-22T02:08:44;101562.25;;;10.06;100.00
44765;BME280;30484;52.382;5.260;2023-02-22T02:11:19;101566.09;;;9.47;100.00
44765;BME280;30484;52.382;5.260;2023-02-22T02:13:49;101574.31;;;9.41;100.00
44765;BME280;30484;52.382;5.260;2023-02-22T02:16:20;101568.81;;;9.45;100.00
44765;BME280;30484;52.382;5.260;2023-02-22T02:18:49;101563.53;;;9.44;100.00
44765;BME280;30484;52.382;5.260;2023-02-22T02:27:15;101547.69;;;9.90;100.00
44765;BME280;30484;52.382;5.260;2023-02-22T02:32:55;101548.47;;;9.68;100.00
44765;BME280;30484;52.382;5.260;2023-02-22T02:35:36;101536.53;;;9.78;100.00
44765;BME280;30484;52.382;5.260;2023-02-22T02:38:11;101541.19;;;9.97;100.00
44765;BME280;30484;52.382;5.260;2023-02-22T02:40:57;101542.75;;;9.27;100.00
44765;BME280;30484;52.382;5.260;2023-02-22T02:43:28;101545.75;;;9.43;100.00
44765;BME280;30484;52.382;5.260;2023-02-22T02:46:02;101536.31;;;9.59;100.00
44765;BME280;30484;52.382;5.260;2023-02-22T02:48:34;101537.63;;;8.94;100.00
44765;BME280;30484;52.382;5.260;2023-02-22T02:51:06;101527.53;;;9.56;100.00
44765;BME280;30484;52.382;5.260;2023-02-22T02:53:42;101525.16;;;9.48;100.00
44765;BME280;30484;52.382;5.260;2023-02-22T02:56:13;101519.09;;;9.43;100.00
44765;BME280;30484;52.382;5.260;2023-02-22T02:58:45;101511.78;;;9.98;100.00
44765;BME280;30484;52.382;5.260;2023-02-22T03:01:27;101518.88;;;9.24;100.00
44765;BME280;30484;52.382;5.260;2023-02-22T03:04:21;101499.66;;;9.64;100.00
44765;BME280;30484;52.382;5.260;2023-02-22T03:07:04;101511.28;;;10.12;100.00
44765;BME280;30484;52.382;5.260;2023-02-22T03:09:40;101509.69;;;10.07;100.00
44765;BME280;30484;52.382;5.260;2023-02-22T03:12:18;101508.09;;;9.77;100.00
44765;BME280;30484;52.382;5.260;2023-02-22T03:14:52;101507.84;;;9.85;100.00
44765;BME280;30484;52.382;5.260;2023-02-22T03:17:32;101515.84;;;9.60;100.00
44765;BME280;30484;52.382;5.260;2023-02-22T03:20:13;101502.63;;;9.80;100.00
44765;BME280;30484;52.382;5.260;2023-02-22T03:22:46;101502.88;;;9.24;100.00
44765;BME280;30484;52.382;5.260;2023-02-22T03:25:21;101495.72;;;9.75;100.00
44765;BME280;30484;52.382;5.260;2023-02-22T03:27:53;101499.47;;;9.94;100.00
44765;BME280;30484;52.382;5.260;2023-02-22T03:30:28;101488.06;;;9.91;100.00
44765;BME280;30484;52.382;5.260;2023-02-22T03:33:01;101491.72;;;10.12;100.00
44765;BME280;30484;52.382;5.260;2023-02-22T03:35:38;101484.97;;;9.53;100.00
44765;BME280;30484;52.382;5.260;2023-02-22T03:38:10;101488.03;;;10.14;100.00
44765;BME280;30484;52.382;5.260;2023-02-22T03:40:41;101485.50;;;10.11;100.00
44765;BME280;30484;52.382;5.260;2023-02-22T03:43:12;101484.63;;;10.11;100.00
44765;BME280;30484;52.382;5.260;2023-02-22T03:45:43;101468.59;;;9.38;100.00
44765;BME280;30484;52.382;5.260;2023-02-22T03:48:15;101475.44;;;9.45;100.00
44765;BME280;30484;52.382;5.260;2023-02-22T03:50:48;101472.81;;;8.92;100.00
44765;BME280;30484;52.382;5.260;2023-02-22T03:53:17;101478.88;;;8.97;100.00
44765;BME280;30484;52.382;5.260;2023-02-22T03:55:46;101479.00;;;8.66;100.00
44765;BME280;30484;52.382;5.260;2023-02-22T03:58:19;101474.38;;;8.72;100.00
44765;BME280;30484;52.382;5.260;2023-02-22T04:00:49;101477.94;;;9.25;100.00
44765;BME280;30484;52.382;5.260;2023-02-22T04:03:20;101463.34;;;9.10;100.00
44765;BME280;30484;52.382;5.260;2023-02-22T04:05:50;101458.53;;;8.94;100.00
44765;BME280;30484;52.382;5.260;2023-02-22T04:08:18;101471.41;;;9.08;100.00
44765;BME280;30484;52.382;5.260;2023-02-22T04:10:47;101469.66;;;9.07;100.00
44765;BME280;30484;52.382;5.260;2023-02-22T04:13:15;101467.94;;;9.31;100.00
44765;BME280;30484;52.382;5.260;2023-02-22T04:15:43;101465.34;;;9.03;100.00
44765;BME280;30484;52.382;5.260;2023-02-22T04:18:12;101459.06;;;8.51;100.00
44765;BME280;30484;52.382;5.260;2023-02-22T04:20:41;101461.66;;;8.52;100.00
44765;BME280;30484;52.382;5.260;2023-02-22T04:23:12;101452.63;;;8.85;100.00
44765;BME280;30484;52.382;5.260;2023-02-22T04:25:42;101462.38;;;8.86;100.00
44765;BME280;30484;52.382;5.260;2023-02-22T04:28:11;101465.97;;;8.56;100.00
44765;BME280;30484;52.382;5.260;2023-02-22T04:30:40;101463.38;;;8.25;100.00
44765;BME280;30484;52.382;5.260;2023-02-22T04:33:10;101459.44;;;8.93;100.00
44765;BME280;30484;52.382;5.260;2023-02-22T04:35:38;101442.97;;;8.25;100.00
44765;BME280;30484;52.382;5.260;2023-02-22T04:38:06;101453.25;;;8.66;100.00
44765;BME280;30484;52.382;5.260;2023-02-22T04:40:39;101457.53;;;8.70;100.00
44765;BME280;30484;52.382;5.260;2023-02-22T04:43:07;101452.28;;;8.69;100.00
44765;BME280;30484;52.382;5.260;2023-02-22T04:45:36;101436.97;;;8.75;100.00
44765;BME280;30484;52.382;5.260;2023-02-22T04:48:05;101436.47;;;8.34;100.00
44765;BME280;30484;52.382;5.260;2023-02-22T04:50:33;101438.78;;;8.46;100.00
44765;BME280;30484;52.382;5.260;2023-02-22T04:53:01;101435.53;;;8.65;100.00
44765;BME280;30484;52.382;5.260;2023-02-22T04:55:30;101428.16;;;8.45;100.00
44765;BME280;30484;52.382;5.260;2023-02-22T04:58:01;101417.75;;;8.37;100.00
44765;BME280;30484;52.382;5.260;2023-02-22T05:00:31;101410.66;;;8.36;100.00
44765;BME280;30484;52.382;5.260;2023-02-22T05:03:00;101415.22;;;8.88;100.00
44765;BME280;30484;52.382;5.260;2023-02-22T05:05:29;101403.31;;;8.16;100.00
44765;BME280;30484;52.382;5.260;2023-02-22T05:07:57;101411.56;;;8.65;100.00
44765;BME280;30484;52.382;5.260;2023-02-22T05:10:26;101408.63;;;9.00;100.00
44765;BME280;30484;52.382;5.260;2023-02-22T05:12:55;101410.00;;;8.85;100.00
44765;BME280;30484;52.382;5.260;2023-02-22T05:15:25;101399.44;;;8.55;100.00
44765;BME280;30484;52.382;5.260;2023-02-22T05:17:54;101409.69;;;8.10;100.00
44765;BME280;30484;52.382;5.260;2023-02-22T05:20:24;101405.44;;;7.43;100.00
44765;BME280;30484;52.382;5.260;2023-02-22T05:22:54;101395.94;;;7.96;100.00
44765;BME280;30484;52.382;5.260;2023-02-22T05:25:24;101386.34;;;8.49;100.00
44765;BME280;30484;52.382;5.260;2023-02-22T05:27:54;101405.94;;;7.88;100.00
44765;BME280;30484;52.382;5.260;2023-02-22T05:30:27;101403.25;;;8.18;100.00
44765;BME280;30484;52.382;5.260;2023-02-22T05:32:56;101398.16;;;7.82;100.00
44765;BME280;30484;52.382;5.260;2023-02-22T05:35:25;101396.75;;;7.38;100.00
44765;BME280;30484;52.382;5.260;2023-02-22T05:37:55;101388.28;;;7.55;100.00
44765;BME280;30484;52.382;5.260;2023-02-22T05:40:25;101393.44;;;7.91;100.00
44765;BME280;30484;52.382;5.260;2023-02-22T05:42:56;101379.47;;;8.13;100.00
44765;BME280;30484;52.382;5.260;2023-02-22T05:45:27;101373.25;;;8.41;100.00
44765;BME280;30484;52.382;5.260;2023-02-22T05:47:58;101383.22;;;8.62;100.00
44765;BME280;30484;52.382;5.260;2023-02-22T05:50:28;101375.44;;;8.00;100.00
44765;BME280;30484;52.382;5.260;2023-02-22T05:52:56;101374.22;;;7.82;100.00
44765;BME280;30484;52.382;5.260;2023-02-22T05:55:25;101366.19;;;8.11;100.00
44765;BME280;30484;52.382;5.260;2023-02-22T05:57:53;101370.13;;;8.00;100.00
44765;BME280;30484;52.382;5.260;2023-02-22T06:00:28;101362.72;;;7.81;100.00
44765;BME280;30484;52.382;5.260;2023-02-22T06:02:58;101355.66;;;8.08;100.00
44765;BME280;30484;52.382;5.260;2023-02-22T06:05:27;101354.91;;;7.75;100.00
44765;BME280;30484;52.382;5.260;2023-02-22T06:07:57;101354.81;;;7.48;100.00
44765;BME280;30484;52.382;5.260;2023-02-22T06:10:26;101346.72;;;8.38;100.00
44765;BME280;30484;52.382;5.260;2023-02-22T06:12:55;101352.84;;;7.85;100.00
44765;BME280;30484;52.382;5.260;2023-02-22T06:15:25;101356.31;;;8.15;100.00
44765;BME280;30484;52.382;5.260;2023-02-22T06:17:56;101362.22;;;7.68;100.00
44765;BME280;30484;52.382;5.260;2023-02-22T06:20:26;101356.41;;;8.40;100.00
44765;BME280;30484;52.382;5.260;2023-02-22T06:22:56;101356.25;;;8.18;100.00
44765;BME280;30484;52.382;5.260;2023-02-22T06:25:28;101354.22;;;7.98;100.00
44765;BME280;30484;52.382;5.260;2023-02-22T06:27:58;101359.00;;;7.87;100.00
44765;BME280;30484;52.382;5.260;2023-02-22T06:30:27;101350.59;;;7.99;100.00
44765;BME280;30484;52.382;5.260;2023-02-22T06:32:57;101358.16;;;7.85;100.00
44765;BME280;30484;52.382;5.260;2023-02-22T06:35:26;101357.41;;;7.81;100.00
44765;BME280;30484;52.382;5.260;2023-02-22T06:37:54;101351.94;;;7.56;100.00
44765;BME280;30484;52.382;5.260;2023-02-22T06:40:23;101355.13;;;7.97;100.00
44765;BME280;30484;52.382;5.260;2023-02-22T06:42:55;101345.50;;;7.63;100.00
44765;BME280;30484;52.382;5.260;2023-02-22T06:45:26;101373.91;;;7.63;100.00
44765;BME280;30484;52.382;5.260;2023-02-22T06:47:54;101360.34;;;7.40;100.00
44765;BME280;30484;52.382;5.260;2023-02-22T06:50:25;101375.69;;;8.49;100.00
44765;BME280;30484;52.382;5.260;2023-02-22T06:52:55;101368.72;;;8.16;100.00
44765;BME280;30484;52.382;5.260;2023-02-22T06:55:25;101373.28;;;8.12;100.00
44765;BME280;30484;52.382;5.260;2023-02-22T06:57:55;101372.41;;;7.82;100.00
44765;BME280;30484;52.382;5.260;2023-02-22T07:00:25;101374.44;;;8.04;100.00
44765;BME280;30484;52.382;5.260;2023-02-22T07:02:55;101363.31;;;7.91;100.00
44765;BME280;30484;52.382;5.260;2023-02-22T07:05:25;101360.50;;;7.95;100.00
44765;BME280;30484;52.382;5.260;2023-02-22T07:08:00;101368.75;;;7.86;100.00
44765;BME280;30484;52.382;5.260;2023-02-22T07:10:30;101366.56;;;7.99;100.00
44765;BME280;30484;52.382;5.260;2023-02-22T07:12:59;101347.72;;;8.35;100.00
44765;BME280;30484;52.382;5.260;2023-02-22T07:15:31;101362.13;;;7.71;100.00
44765;BME280;30484;52.382;5.260;2023-02-22T07:18:00;101365.41;;;7.80;100.00
44765;BME280;30484;52.382;5.260;2023-02-22T07:20:31;101365.03;;;8.49;100.00
44765;BME280;30484;52.382;5.260;2023-02-22T07:23:00;101356.88;;;8.53;100.00
44765;BME280;30484;52.382;5.260;2023-02-22T07:25:28;101363.44;;;7.86;100.00
44765;BME280;30484;52.382;5.260;2023-02-22T07:27:57;101372.28;;;8.15;100.00
44765;BME280;30484;52.382;5.260;2023-02-22T07:30:26;101362.88;;;8.60;100.00
44765;BME280;30484;52.382;5.260;2023-02-22T07:32:58;101363.56;;;8.38;100.00
44765;BME280;30484;52.382;5.260;2023-02-22T07:35:28;101356.28;;;8.17;100.00
44765;BME280;30484;52.382;5.260;2023-02-22T07:38:24;101359.06;;;8.40;100.00
44765;BME280;30484;52.382;5.260;2023-02-22T07:40:53;101349.13;;;8.47;100.00
44765;BME280;30484;52.382;5.260;2023-02-22T07:43:24;101343.63;;;8.23;100.00
44765;BME280;30484;52.382;5.260;2023-02-22T07:45:54;101358.06;;;8.16;100.00
44765;BME280;30484;52.382;5.260;2023-02-22T07:48:26;101360.34;;;8.00;100.00
44765;BME280;30484;52.382;5.260;2023-02-22T07:50:54;101364.06;;;8.23;100.00
44765;BME280;30484;52.382;5.260;2023-02-22T07:53:26;101358.06;;;8.16;100.00
44765;BME280;30484;52.382;5.260;2023-02-22T07:55:56;101358.53;;;8.01;100.00
44765;BME280;30484;52.382;5.260;2023-02-22T07:58:26;101357.31;;;8.93;100.00
44765;BME280;30484;52.382;5.260;2023-02-22T08:00:54;101356.53;;;8.91;100.00
44765;BME280;30484;52.382;5.260;2023-02-22T08:03:24;101354.06;;;8.58;100.00
44765;BME280;30484;52.382;5.260;2023-02-22T08:05:54;101360.34;;;8.57;100.00
44765;BME280;30484;52.382;5.260;2023-02-22T08:08:28;101343.28;;;8.88;100.00
44765;BME280;30484;52.382;5.260;2023-02-22T08:10:56;101330.59;;;8.69;100.00
44765;BME280;30484;52.382;5.260;2023-02-22T08:13:25;101339.00;;;8.84;100.00
44765;BME280;30484;52.382;5.260;2023-02-22T08:15:54;101346.41;;;8.49;100.00
44765;BME280;30484;52.382;5.260;2023-02-22T08:18:24;101354.19;;;8.55;100.00
44765;BME280;30484;52.382;5.260;2023-02-22T08:20:52;101358.81;;;8.50;100.00
44765;BME280;30484;52.382;5.260;2023-02-22T08:23:22;101364.31;;;8.42;100.00
44765;BME280;30484;52.382;5.260;2023-02-22T08:25:54;101368.97;;;8.08;100.00
44765;BME280;30484;52.382;5.260;2023-02-22T08:28:23;101369.97;;;8.33;100.00
44765;BME280;30484;52.382;5.260;2023-02-22T08:30:52;101366.72;;;8.23;100.00
44765;BME280;30484;52.382;5.260;2023-02-22T08:33:21;101369.75;;;8.67;100.00
44765;BME280;30484;52.382;5.260;2023-02-22T08:35:50;101360.50;;;8.24;100.00
44765;BME280;30484;52.382;5.260;2023-02-22T08:38:20;101361.16;;;8.02;100.00
44765;BME280;30484;52.382;5.260;2023-02-22T08:40:50;101361.72;;;8.40;100.00
44765;BME280;30484;52.382;5.260;2023-02-22T08:43:21;101360.25;;;8.32;100.00
44765;BME280;30484;52.382;5.260;2023-02-22T08:45:53;101349.38;;;9.17;100.00
44765;BME280;30484;52.382;5.260;2023-02-22T08:48:23;101350.34;;;8.89;100.00
44765;BME280;30484;52.382;5.260;2023-02-22T08:50:52;101342.38;;;8.89;100.00
44765;BME280;30484;52.382;5.260;2023-02-22T08:53:21;101351.69;;;9.26;100.00
44765;BME280;30484;52.382;5.260;2023-02-22T08:55:49;101354.44;;;8.74;100.00
44765;BME280;30484;52.382;5.260;2023-02-22T08:58:20;101355.63;;;8.90;100.00
44765;BME280;30484;52.382;5.260;2023-02-22T09:00:48;101357.38;;;9.17;100.00
44765;BME280;30484;52.382;5.260;2023-02-22T09:03:17;101350.91;;;8.46;100.00
44765;BME280;30484;52.382;5.260;2023-02-22T09:05:45;101349.41;;;8.64;100.00
44765;BME280;30484;52.382;5.260;2023-02-22T09:08:15;101347.56;;;9.42;100.00
44765;BME280;30484;52.382;5.260;2023-02-22T09:10:43;101346.34;;;8.77;100.00
44765;BME280;30484;52.382;5.260;2023-02-22T09:13:12;101345.00;;;8.37;100.00
44765;BME280;30484;52.382;5.260;2023-02-22T09:15:42;101341.63;;;8.85;100.00
44765;BME280;30484;52.382;5.260;2023-02-22T09:18:12;101332.34;;;9.21;100.00
44765;BME280;30484;52.382;5.260;2023-02-22T09:20:45;101339.44;;;8.71;100.00
44765;BME280;30484;52.382;5.260;2023-02-22T09:23:14;101336.97;;;9.15;100.00
44765;BME280;30484;52.382;5.260;2023-02-22T09:25:42;101325.56;;;8.87;100.00
44765;BME280;30484;52.382;5.260;2023-02-22T09:28:11;101323.50;;;9.44;100.00
44765;BME280;30484;52.382;5.260;2023-02-22T09:30:42;101320.63;;;9.01;100.00
44765;BME280;30484;52.382;5.260;2023-02-22T09:33:12;101324.84;;;9.07;100.00
44765;BME280;30484;52.382;5.260;2023-02-22T09:35:42;101314.25;;;9.76;100.00
44765;BME280;30484;52.382;5.260;2023-02-22T09:38:14;101305.06;;;9.83;100.00
44765;BME280;30484;52.382;5.260;2023-02-22T09:40:46;101301.38;;;9.40;100.00
44765;BME280;30484;52.382;5.260;2023-02-22T09:43:35;101304.75;;;9.45;100.00
44765;BME280;30484;52.382;5.260;2023-02-22T09:46:21;101307.38;;;9.47;100.00
44765;BME280;30484;52.382;5.260;2023-02-22T09:49:03;101296.91;;;9.64;100.00
44765;BME280;30484;52.382;5.260;2023-02-22T09:51:36;101306.47;;;9.70;100.00
44765;BME280;30484;52.382;5.260;2023-02-22T09:54:13;101304.75;;;9.69;100.00
44765;BME280;30484;52.382;5.260;2023-02-22T09:56:45;101297.31;;;9.99;100.00
44765;BME280;30484;52.382;5.260;2023-02-22T09:59:20;101287.03;;;10.33;100.00
44765;BME280;30484;52.382;5.260;2023-02-22T10:02:01;101281.81;;;10.52;100.00
44765;BME280;30484;52.382;5.260;2023-02-22T10:04:38;101275.09;;;10.83;100.00
44765;BME280;30484;52.382;5.260;2023-02-22T10:07:16;101272.25;;;10.46;100.00
44765;BME280;30484;52.382;5.260;2023-02-22T10:09:47;101271.91;;;10.11;100.00
44765;BME280;30484;52.382;5.260;2023-02-22T10:12:22;101262.97;;;10.33;100.00
44765;BME280;30484;52.382;5.260;2023-02-22T10:15:06;101251.13;;;10.40;100.00
44765;BME280;30484;52.382;5.260;2023-02-22T10:17:44;101248.69;;;10.13;100.00
44765;BME280;30484;52.382;5.260;2023-02-22T10:20:25;101258.56;;;10.75;100.00
44765;BME280;30484;52.382;5.260;2023-02-22T10:23:07;101245.84;;;11.38;100.00
44765;BME280;30484;52.382;5.260;2023-02-22T10:25:38;101243.31;;;9.93;100.00
44765;BME280;30484;52.382;5.260;2023-02-22T10:28:09;101245.72;;;10.83;100.00
44765;BME280;30484;52.382;5.260;2023-02-22T10:30:42;101249.75;;;11.12;100.00
44765;BME280;30484;52.382;5.260;2023-02-22T10:33:16;101248.59;;;10.37;100.00
44765;BME280;30484;52.382;5.260;2023-02-22T10:35:46;101253.50;;;11.27;100.00
44765;BME280;30484;52.382;5.260;2023-02-22T10:38:17;101248.16;;;11.46;100.00
44765;BME280;30484;52.382;5.260;2023-02-22T10:40:48;101257.78;;;11.50;100.00
44765;BME280;30484;52.382;5.260;2023-02-22T10:43:18;101268.81;;;12.00;100.00
44765;BME280;30484;52.382;5.260;2023-02-22T10:45:46;101258.38;;;12.30;100.00
44765;BME280;30484;52.382;5.260;2023-02-22T10:48:17;101253.09;;;12.29;100.00
44765;BME280;30484;52.382;5.260;2023-02-22T10:50:47;101249.06;;;11.83;100.00
44765;BME280;30484;52.382;5.260;2023-02-22T10:53:16;101260.59;;;11.28;100.00
44765;BME280;30484;52.382;5.260;2023-02-22T10:56:07;101264.03;;;11.87;100.00
44765;BME280;30484;52.382;5.260;2023-02-22T10:58:43;101254.59;;;11.42;100.00
44765;BME280;30484;52.382;5.260;2023-02-22T11:01:18;101260.91;;;12.33;100.00
44765;BME280;30484;52.382;5.260;2023-02-22T11:04:08;101259.16;;;12.15;100.00
44765;BME280;30484;52.382;5.260;2023-02-22T11:06:40;101246.63;;;12.15;100.00
44765;BME280;30484;52.382;5.260;2023-02-22T11:09:12;101244.09;;;11.95;100.00
44765;BME280;30484;52.382;5.260;2023-02-22T11:11:43;101227.69;;;12.18;100.00
44765;BME280;30484;52.382;5.260;2023-02-22T11:14:13;101222.91;;;12.07;100.00
44765;BME280;30484;52.382;5.260;2023-02-22T11:16:52;101218.66;;;11.48;100.00
44765;BME280;30484;52.382;5.260;2023-02-22T11:19:25;101210.03;;;11.97;100.00
44765;BME280;30484;52.382;5.260;2023-02-22T11:21:56;101217.47;;;11.72;100.00
44765;BME280;30484;52.382;5.260;2023-02-22T11:24:25;101211.75;;;11.80;100.00
44765;BME280;30484;52.382;5.260;2023-02-22T11:27:10;101196.84;;;12.29;100.00
44765;BME280;30484;52.382;5.260;2023-02-22T11:29:49;101203.19;;;12.43;100.00
44765;BME280;30484;52.382;5.260;2023-02-22T11:32:18;101243.16;;;12.66;100.00
44765;BME280;30484;52.382;5.260;2023-02-22T11:34:50;101232.44;;;12.48;100.00
44765;BME280;30484;52.382;5.260;2023-02-22T11:37:35;101240.88;;;12.40;100.00
44765;BME280;30484;52.382;5.260;2023-02-22T11:40:13;101231.09;;;12.22;100.00
44765;BME280;30484;52.382;5.260;2023-02-22T11:42:45;101244.19;;;12.97;100.00
44765;BME280;30484;52.382;5.260;2023-02-22T11:45:16;101242.75;;;12.73;100.00
44765;BME280;30484;52.382;5.260;2023-02-22T11:47:48;101242.75;;;12.56;100.00
44765;BME280;30484;52.382;5.260;2023-02-22T11:50:32;101234.34;;;12.80;100.00
44765;BME280;30484;52.382;5.260;2023-02-22T11:53:20;101225.50;;;12.62;100.00
44765;BME280;30484;52.382;5.260;2023-02-22T11:56:06;101237.22;;;12.76;100.00
44765;BME280;30484;52.382;5.260;2023-02-22T11:58:42;101234.31;;;12.64;100.00
44765;BME280;30484;52.382;5.260;2023-02-22T12:01:15;101222.78;;;13.28;100.00
44765;BME280;30484;52.382;5.260;2023-02-22T12:04:03;101216.59;;;13.44;100.00
44765;BME280;30484;52.382;5.260;2023-02-22T12:06:46;101215.75;;;13.10;100.00
44765;BME280;30484;52.382;5.260;2023-02-22T12:09:21;101205.47;;;13.82;100.00
44765;BME280;30484;52.382;5.260;2023-02-22T12:11:59;101211.25;;;13.10;100.00
44765;BME280;30484;52.382;5.260;2023-02-22T12:14:36;101199.53;;;13.45;100.00
44765;BME280;30484;52.382;5.260;2023-02-22T12:17:33;101196.25;;;13.40;100.00
44765;BME280;30484;52.382;5.260;2023-02-22T12:20:16;101205.31;;;13.53;100.00
44765;BME280;30484;52.382;5.260;2023-02-22T12:22:57;101185.72;;;14.13;100.00
44765;BME280;30484;52.382;5.260;2023-02-22T12:25:30;101188.72;;;14.23;100.00
44765;BME280;30484;52.382;5.260;2023-02-22T12:28:05;101185.56;;;13.70;100.00
44765;BME280;30484;52.382;5.260;2023-02-22T12:30:52;101180.88;;;14.49;100.00
44765;BME280;30484;52.382;5.260;2023-02-22T12:33:25;101176.59;;;14.61;100.00
44765;BME280;30484;52.382;5.260;2023-02-22T12:35:57;101184.22;;;14.69;100.00
44765;BME280;30484;52.382;5.260;2023-02-22T12:38:29;101177.78;;;14.71;100.00
44765;BME280;30484;52.382;5.260;2023-02-22T12:41:06;101172.06;;;14.61;100.00
44765;BME280;30484;52.382;5.260;2023-02-22T12:43:40;101173.66;;;14.80;100.00
44765;BME280;30484;52.382;5.260;2023-02-22T12:46:12;101169.56;;;14.44;100.00
44765;BME280;30484;52.382;5.260;2023-02-22T12:48:46;101179.66;;;14.10;100.00
44765;BME280;30484;52.382;5.260;2023-02-22T12:51:26;101171.06;;;14.78;100.00
44765;BME280;30484;52.382;5.260;2023-02-22T12:54:00;101175.50;;;14.35;100.00
44765;BME280;30484;52.382;5.260;2023-02-22T12:56:33;101159.69;;;14.00;100.00
44765;BME280;30484;52.382;5.260;2023-02-22T12:59:08;101170.56;;;14.72;100.00
44765;BME280;30484;52.382;5.260;2023-02-22T13:01:41;101185.81;;;14.12;100.00
44765;BME280;30484;52.382;5.260;2023-02-22T13:04:11;101183.63;;;13.88;100.00
44765;BME280;30484;52.382;5.260;2023-02-22T13:06:59;101184.59;;;14.77;100.00
44765;BME280;30484;52.382;5.260;2023-02-22T13:09:40;101177.19;;;14.66;100.00
44765;BME280;30484;52.382;5.260;2023-02-22T13:12:13;101168.63;;;14.59;100.00
44765;BME280;30484;52.382;5.260;2023-02-22T13:14:51;101176.84;;;14.42;100.00
44765;BME280;30484;52.382;5.260;2023-02-22T13:17:27;101166.41;;;13.76;100.00
44765;BME280;30484;52.382;5.260;2023-02-22T13:20:02;101170.47;;;14.14;100.00